Nearby METAR Reports

 

KCRE - North Myrtle Bea, South Carolina, USA
Distance from station: SW 11mi, 18km
Updated: 09/21/2018 12:53am
Mostly cloudy
Mostly cloudy
 Wind from E
Wind: E 9 mph , 15 km/h
Temperature: 79°F , 26°C
Dew Point: 70°F , 21°C
Humidity: 74%
Barometer: 30.17 inHg , 1021.7 hPa
Clouds: Mostly cloudy
Visibility: 10 miles , 16 km
Cloud details: Mostly cloudy 2700 ft
2018/09/21 04:53 KCRE 210453Z AUTO 10008KT 10SM BKN027 26/21 A3017 RMK AO1 SLP218 T02610206 403060222
KCPC - Whiteville, North Carolina, USA
Distance from station: NNW 26mi, 42km
Updated: 09/21/2018 1:20am
Clear
Clear
 Wind from calm
Wind: Calm
Temperature: 73°F , 23°C
Dew Point: 70°F , 21°C
Humidity: 89%
Barometer: 30.18 inHg , 1022 hPa
Clouds: Clear
Visibility: 10 miles , 16 km
2018/09/21 05:20 KCPC 210520Z AUTO 00000KT 10SM CLR 23/21 A3018 RMK AO2 T02280213
 
KMYR - Myrtle Beach, South Carolina, USA
Distance from station: SW 27mi, 43km
Updated: 09/21/2018 1:14am
Partly cloudy
Partly cloudy
 Wind from E
Wind: E 10 mph , 17 km/h
Temperature: 79°F , 26°C
Dew Point: 70°F , 21°C
Humidity: 74%
Barometer: 30.18 inHg , 1022 hPa
Clouds: Partly cloudy
Visibility: 10 miles , 16 km
Cloud details: Partly cloudy 2600 ft
2018/09/21 05:14 KMYR 210514Z AUTO 10009KT 10SM SCT026 26/21 A3018 RMK AO2
KSUT - Southport, North Carolina, USA
Distance from station: E 28mi, 45km
Updated: 09/20/2018 3:45am
NOT Current
Clear
Clear
 Wind from calm
Wind: Calm
Temperature: 73°F , 23°C
Dew Point: 70°F , 21°C
Humidity: 89%
Barometer: 30.02 inHg , 1016.6 hPa
Clouds: Clear
Visibility: 10 miles , 16 km
2018/09/20 07:45 KSUT 200745Z AUTO 00000KT 10SM CLR 23/21 A3002 RMK AO2 T02250205
 
KHYW - Conway-Horry Cty, South Carolina, USA
Distance from station: WSW 32mi, 52km
Updated: 09/21/2018 1:15am
Mist, Clear
Mist, Clear
 Wind from calm
Wind: Calm
Temperature: 72°F , 22°C
Dew Point: 72°F , 22°C
Humidity: 100%
Barometer: 30.17 inHg , 1021.7 hPa
Summary: Mist
Clouds: Clear
Visibility: 5 miles , 8 km
2018/09/21 05:15 KHYW 210515Z AUTO 00000KT 5SM BR CLR 22/22 A3017 RMK AO2
KILM - Wilmington, North Carolina, USA
Distance from station: ENE 45mi, 72km
Updated: 09/21/2018 1:02am
Partly cloudy
Partly cloudy
 Wind from ENE
Wind: ENE 5 mph , 7 km/h
Temperature: 73°F , 23°C
Dew Point: 66°F , 19°C
Humidity: 78%
Barometer: 30.19 inHg , 1022.4 hPa
Clouds: Partly cloudy
Visibility: 10 miles , 16 km
Cloud details: Partly cloudy 3000 ft
2018/09/21 05:02 KILM 210502Z 07004KT 10SM SCT030 23/19 A3019 RMK AO2 T02280189
 
KEYF - Elizabethtown, North Carolina, USA
Distance from station: N 47mi, 75km
Updated: 09/21/2018 1:25am
Clear
Clear
 Wind from E
Wind: E 3 mph , 6 km/h
Temperature: 72°F , 22°C
Dew Point: 70°F , 21°C
Humidity: 94%
Barometer: 30.19 inHg , 1022.4 hPa
Clouds: Clear
Visibility: 10 miles , 16 km
2018/09/21 05:25 KEYF 210525Z AUTO 08003KT 10SM CLR 22/21 A3019 RMK AO2 T02240212
KMAO - Marion, South Carolina, USA
Distance from station: WNW 47mi, 76km
Updated: 09/21/2018 1:35am
Clear
Clear
 Wind from calm
Wind: Calm
Temperature: 70°F , 21°C
Dew Point: 70°F , 21°C
Humidity: 100%
Barometer: 30.18 inHg , 1022 hPa
Clouds: Clear
Visibility: 10 miles , 16 km
2018/09/21 05:35 KMAO 210535Z AUTO 00000KT 10SM CLR 21/21 A3018 RMK AO2
 
KLBT - Lumberton, North Carolina, USA
Distance from station: NNW 55mi, 88km
Updated: 09/14/2018 5:17pm
NOT Current
Rain, Mist, Overcast
Rain, Mist, Overcast
 Wind from NNE
Wind: NNE 35 mph , 56 km/h, Gust: 60 mph , 96 km/h
Temperature: 75°F , 24°C
Dew Point: 73°F , 23°C
Humidity: 94%
Barometer: 29.34 inHg , 993.6 hPa
Summary: Rain, Mist
Clouds: Overcast
Visibility: 2 miles , 3 km
Cloud details: Overcast 1300 ft
2018/09/14 21:17 KLBT 142117Z AUTO 02030G52KT 2SM RA BR OVC013 24/23 A2934 RMK AO2 PK WND 02052/2112 RAB2055 P0005 T02390228 $
KGGE - Georgetown, South Carolina, USA
Distance from station: SW 60mi, 97km
Updated: 09/21/2018 1:35am
Clear
Clear
 Wind from E
Wind: E 7 mph , 11 km/h
Temperature: 77°F , 25°C
Dew Point: 73°F , 23°C
Humidity: 89%
Barometer: 30.17 inHg , 1021.7 hPa
Clouds: Clear
Visibility: 10 miles , 16 km
2018/09/21 05:35 KGGE 210535Z AUTO 10006KT 10SM CLR 25/23 A3017 RMK AO2
 
KFLO - Florence, South Carolina, USA
Distance from station: WNW 69mi, 111km
Updated: 09/21/2018 12:53am
Partly cloudy
Partly cloudy
 Wind from E
Wind: E 3 mph , 6 km/h
Temperature: 75°F , 24°C
Dew Point: 72°F , 22°C
Humidity: 89%
Barometer: 30.18 inHg , 1022 hPa
Clouds: Partly cloudy
Visibility: 10 miles , 16 km
Cloud details: Partly cloudy 2300 ft
2018/09/21 04:53 KFLO 210453Z AUTO 09003KT 10SM SCT023 24/22 A3018 RMK AO2 SLP218 T02390222 403280200
KCTZ - Clinton, North Carolina, USA
Distance from station: N 74mi, 119km
Updated: 09/20/2018 1:05am
NOT Current
Clear
Clear
 Wind from calm
Wind: Calm
Temperature: 72°F , 22°C
Dew Point: 72°F , 22°C
Humidity: 100%
Barometer: 30.04 inHg , 1017.3 hPa
Clouds: Clear
Visibility: 7 miles , 11 km
2018/09/20 05:05 KCTZ 200505Z AUTO 00000KT 7SM CLR 22/22 A3004 RMK AO2 T02170217
 
KMEB - Maxton, North Carolina, USA
Distance from station: NW 75mi, 120km
Updated: 09/21/2018 12:52am
Clear
Clear
 Wind from SE
Wind: SE 3 mph , 6 km/h
Temperature: 73°F , 23°C
Dew Point: 72°F , 22°C
Humidity: 94%
Barometer: 30.20 inHg , 1022.7 hPa
Clouds: Clear
Visibility: 9 miles , 14 km
2018/09/21 04:52 KMEB 210452Z AUTO 13003KT 9SM CLR 23/22 A3020 RMK AO2 SLP222 T02280217 403220200
KCKI - Kingstree, South Carolina, USA
Distance from station: W 75mi, 121km
Updated: 09/21/2018 1:15am
Mist, Clear
Mist, Clear
 Wind from calm
Wind: Calm
Temperature: 70°F , 21°C
Dew Point: 70°F , 21°C
Humidity: 100%
Barometer: 30.17 inHg , 1021.7 hPa
Summary: Mist
Clouds: Clear
Visibility: 4 miles , 6 km
2018/09/21 05:15 KCKI 210515Z AUTO 00000KT 4SM BR CLR 21/21 A3017 RMK AO2
 
KFAY - Fayetteville, North Carolina, USA
Distance from station: NNW 75mi, 121km
Updated: 09/21/2018 12:53am
Clear
Clear
 Wind from ESE
Wind: ESE 6 mph , 9 km/h
Temperature: 73°F , 23°C
Dew Point: 70°F , 21°C
Humidity: 89%
Barometer: 30.19 inHg , 1022.4 hPa
Clouds: Clear
Visibility: 10 miles , 16 km
2018/09/21 04:53 KFAY 210453Z 11005KT 10SM CLR 23/21 A3019 RMK AO2 SLP217 T02330206 403220200
KBBP - Marlboro Cnty, South Carolina, USA
Distance from station: NW 82mi, 132km
Updated: 09/21/2018 1:15am
Clear
Clear
 Wind from calm
Wind: Calm
Temperature: 73°F , 23°C
Dew Point: 70°F , 21°C
Humidity: 89%
Barometer: 30.19 inHg , 1022.4 hPa
Clouds: Clear
Visibility: 10 miles , 16 km
2018/09/21 05:15 KBBP 210515Z AUTO 00000KT 10SM CLR 23/21 A3019 RMK AO2
 
KDPL - Kenansville/Dupl, North Carolina, USA
Distance from station: NNE 82mi, 132km
Updated: 09/21/2018 1:25am
Mist, Clear
Mist, Clear
 Wind from calm
Wind: Calm
Temperature: 68°F , 20°C
Dew Point: 66°F , 19°C
Humidity: 94%
Barometer: 30.20 inHg , 1022.7 hPa
Summary: Mist
Clouds: Clear
Visibility: 5 miles , 8 km
2018/09/21 05:25 KDPL 210525Z AUTO 00000KT 5SM BR CLR 20/19 A3020 RMK AO2
KOAJ - Jacksonville, North Carolina, USA
Distance from station: NE 82mi, 132km
Updated: 09/21/2018 12:56am
Clear
Clear
 Wind from calm
Wind: Calm
Temperature: 68°F , 20°C
Dew Point: 66°F , 19°C
Humidity: 94%
Barometer: 30.21 inHg , 1023 hPa
Clouds: Clear
Visibility: 10 miles , 16 km
2018/09/21 04:56 KOAJ 210456Z AUTO 00000KT 10SM CLR 20/19 A3021 RMK AO2 SLP232 T02000194 403000194
 
KUDG - Darlington Cnty, South Carolina, USA
Distance from station: WNW 83mi, 134km
Updated: 09/21/2018 12:56am
Clear
Clear
 Wind from ESE
Wind: ESE 3 mph , 6 km/h
Temperature: 73°F , 23°C
Dew Point: 72°F , 22°C
Humidity: 94%
Barometer: 30.19 inHg , 1022.4 hPa
Clouds: Clear
Visibility: 10 miles , 16 km
2018/09/21 04:56 KUDG 210456Z AUTO 11003KT 10SM CLR 23/22 A3019 RMK AO2 SLP226 T02330217
KNCA - New River Mcas, North Carolina, USA
Distance from station: NE 84mi, 135km
Updated: 09/21/2018 12:56am
Clear
Clear
 Wind from ENE
Wind: ENE 5 mph , 7 km/h
Temperature: 72°F , 22°C
Dew Point: 66°F , 19°C
Humidity: 83%
Barometer: 30.19 inHg , 1022.4 hPa
Clouds: Clear
Visibility: 10 miles , 16 km
2018/09/21 04:56 KNCA 210456Z AUTO 06004KT 10SM CLR 22/19 A3019 RMK AO2 SLP225 T02220194 403000211